This is the latest recevied weather packets stored in our database for station/object KQ4HDO. If no packets are shown the sender has not sent any weather packets the latest 10 day(s).
| Time | Temp. | Humidity | Pressure | Rain* | Wind** | Luminosity | Snow |
|---|---|---|---|---|---|---|---|
| 1777803303 | 3.33° C | 91% | 1016.5 hPa | 0 mm | - | - | - |
| 1777803003 | 3.33° C | 91% | 1016.5 hPa | 0 mm | - | - | - |
| 1777802103 | 3.33° C | 91% | 1016.5 hPa | 0 mm | - | - | - |
| 1777800903 | 3.33° C | 91% | 1016.8 hPa | 0 mm | - | - | - |
| 1777799838 | 3.33° C | 91% | 1016.9 hPa | 0 mm | - | - | - |
| 1777796103 | 3.89° C | 90% | 1017.2 hPa | 0 mm | - | - | - |
| 1777794903 | 3.89° C | 91% | 1017.2 hPa | 0 mm | - | - | - |
| 1777793403 | 3.89° C | 90% | 1017.3 hPa | 0 mm | - | - | - |
| 1777791303 | 4.44° C | 90% | 1017.5 hPa | 0 mm | - | - | - |
| 1777787703 | 5° C | 88% | 1018.1 hPa | 0 mm | - | - | - |
| 1777787403 | 5° C | 89% | 1018.1 hPa | 0 mm | - | - | - |
| 1777783937 | 5.56° C | 87% | 1018.3 hPa | 0 mm | - | - | - |
| 1777783337 | 5.56° C | 86% | 1018.3 hPa | 0 mm | - | - | - |
| 1777780337 | 6.67° C | 82% | 1018.4 hPa | 0 mm | - | - | - |
| 1777778403 | 7.22° C | 81% | 1018.5 hPa | 0 mm | - | - | - |
| 1777777504 | 7.22° C | 79% | 1018.4 hPa | 0 mm | - | - | - |
| 1777776303 | 7.78° C | 76% | 1018.4 hPa | 0 mm | - | - | - |
| 1777775103 | 8.33° C | 74% | 1018.1 hPa | 0 mm | - | - | - |
| 1777774037 | 8.89° C | 71% | 1018 hPa | 0 mm | - | - | - |
| 1777773003 | 10° C | 64% | 1017.9 hPa | 0 mm | - | - | - |
| 1777772403 | 10° C | 62% | 1017.9 hPa | 0 mm | - | - | - |
| 1777772103 | 10.56° C | 61% | 1017.8 hPa | 0 mm | - | - | - |
| 1777770003 | 12.22° C | 50% | 1017.7 hPa | 0 mm | - | - | - |
| 1777769837 | 12.78° C | 49% | 1017.7 hPa | 0 mm | - | - | - |
| 1777767903 | 14.44° C | 42% | 1017.7 hPa | 0 mm | - | - | - |
* Rain latest hour (hover to see other rain measurements)
** Current wind speed in m/s (hover to see current wind gust speed)